sensor_id;sensor_type;location;lat;lon;timestamp;pressure;altitude;pressure_sealevel;temperature;humidity
64211;BME280;50528;48.514;14.394;2023-07-02T00:00:00;93177.17;;;17.14;67.92
64211;BME280;50528;48.514;14.394;2023-07-02T00:00:41;93172.81;;;17.15;67.88
64211;BME280;50528;48.514;14.394;2023-07-02T00:01:34;93174.61;;;17.14;67.96
64211;BME280;50528;48.514;14.394;2023-07-02T00:02:08;93171.95;;;17.14;68.05
64211;BME280;50528;48.514;14.394;2023-07-02T00:02:41;93172.06;;;17.15;68.07
64211;BME280;50528;48.514;14.394;2023-07-02T00:03:15;93174.65;;;17.17;68.00
64211;BME280;50528;48.514;14.394;2023-07-02T00:03:48;93172.72;;;17.17;67.98
64211;BME280;50528;48.514;14.394;2023-07-02T00:04:22;93176.66;;;17.17;67.89
64211;BME280;50528;48.514;14.394;2023-07-02T00:04:55;93175.71;;;17.17;67.89
64211;BME280;50528;48.514;14.394;2023-07-02T00:05:29;93159.34;;;17.11;67.93
64211;BME280;50528;48.514;14.394;2023-07-02T00:06:02;93171.08;;;17.19;67.98
64211;BME280;50528;48.514;14.394;2023-07-02T00:06:35;93169.64;;;17.21;68.00
64211;BME280;50528;48.514;14.394;2023-07-02T00:07:13;93171.42;;;17.22;67.96
64211;BME280;50528;48.514;14.394;2023-07-02T00:07:49;93173.48;;;17.23;67.96
64211;BME280;50528;48.514;14.394;2023-07-02T00:08:23;93173.00;;;17.24;68.15
64211;BME280;50528;48.514;14.394;2023-07-02T00:08:56;93173.52;;;17.24;68.07
64211;BME280;50528;48.514;14.394;2023-07-02T00:09:33;93172.22;;;17.26;68.19
64211;BME280;50528;48.514;14.394;2023-07-02T00:10:07;93171.73;;;17.27;68.15
64211;BME280;50528;48.514;14.394;2023-07-02T00:10:42;93172.53;;;17.29;68.17
64211;BME280;50528;48.514;14.394;2023-07-02T00:11:16;93172.18;;;17.31;68.29
64211;BME280;50528;48.514;14.394;2023-07-02T00:11:50;93169.35;;;17.33;68.30
64211;BME280;50528;48.514;14.394;2023-07-02T00:12:24;93167.22;;;17.34;68.09
64211;BME280;50528;48.514;14.394;2023-07-02T00:12:58;93170.61;;;17.36;67.96
64211;BME280;50528;48.514;14.394;2023-07-02T00:13:50;93169.86;;;17.36;67.76
64211;BME280;50528;48.514;14.394;2023-07-02T00:14:39;93170.12;;;17.37;67.93
64211;BME280;50528;48.514;14.394;2023-07-02T00:15:30;93168.54;;;17.36;67.98
64211;BME280;50528;48.514;14.394;2023-07-02T00:16:44;93170.59;;;17.37;67.97
64211;BME280;50528;48.514;14.394;2023-07-02T00:17:37;93157.94;;;17.28;67.95
64211;BME280;50528;48.514;14.394;2023-07-02T00:18:29;93170.74;;;17.37;67.95
64211;BME280;50528;48.514;14.394;2023-07-02T00:19:46;93170.94;;;17.41;67.66
64211;BME280;50528;48.514;14.394;2023-07-02T00:20:19;93172.17;;;17.39;67.59
64211;BME280;50528;48.514;14.394;2023-07-02T00:20:53;93171.88;;;17.40;67.56
64211;BME280;50528;48.514;14.394;2023-07-02T00:21:27;93172.19;;;17.43;67.42
64211;BME280;50528;48.514;14.394;2023-07-02T00:22:01;93171.98;;;17.47;67.47
64211;BME280;50528;48.514;14.394;2023-07-02T00:22:35;93171.30;;;17.50;67.30
64211;BME280;50528;48.514;14.394;2023-07-02T00:23:09;93172.84;;;17.52;67.21
64211;BME280;50528;48.514;14.394;2023-07-02T00:23:43;93171.36;;;17.54;66.90
64211;BME280;50528;48.514;14.394;2023-07-02T00:24:16;93171.31;;;17.58;66.61
64211;BME280;50528;48.514;14.394;2023-07-02T00:24:49;93172.02;;;17.61;66.30
64211;BME280;50528;48.514;14.394;2023-07-02T00:25:24;93172.83;;;17.61;66.40
64211;BME280;50528;48.514;14.394;2023-07-02T00:25:58;93169.89;;;17.61;66.40
64211;BME280;50528;48.514;14.394;2023-07-02T00:26:31;93173.63;;;17.62;66.44
64211;BME280;50528;48.514;14.394;2023-07-02T00:27:05;93174.14;;;17.63;66.54
64211;BME280;50528;48.514;14.394;2023-07-02T00:27:38;93170.75;;;17.65;66.46
64211;BME280;50528;48.514;14.394;2023-07-02T00:28:12;93172.32;;;17.66;66.41
64211;BME280;50528;48.514;14.394;2023-07-02T00:28:45;93169.27;;;17.68;66.40
64211;BME280;50528;48.514;14.394;2023-07-02T00:29:19;93166.64;;;17.71;66.22
64211;BME280;50528;48.514;14.394;2023-07-02T00:29:52;93170.68;;;17.73;65.95
64211;BME280;50528;48.514;14.394;2023-07-02T00:30:25;93170.38;;;17.73;65.84
64211;BME280;50528;48.514;14.394;2023-07-02T00:30:59;93170.98;;;17.72;66.00
64211;BME280;50528;48.514;14.394;2023-07-02T00:31:33;93170.21;;;17.71;65.96
64211;BME280;50528;48.514;14.394;2023-07-02T00:32:07;93170.65;;;17.72;66.06
64211;BME280;50528;48.514;14.394;2023-07-02T00:32:40;93169.90;;;17.74;65.88
64211;BME280;50528;48.514;14.394;2023-07-02T00:33:15;93172.15;;;17.74;65.86
64211;BME280;50528;48.514;14.394;2023-07-02T00:33:49;93169.86;;;17.74;65.92
64211;BME280;50528;48.514;14.394;2023-07-02T00:34:23;93174.54;;;17.76;65.89
64211;BME280;50528;48.514;14.394;2023-07-02T00:34:56;93173.13;;;17.75;65.79
64211;BME280;50528;48.514;14.394;2023-07-02T00:35:30;93173.37;;;17.74;65.93
64211;BME280;50528;48.514;14.394;2023-07-02T00:36:03;93171.62;;;17.74;66.00
64211;BME280;50528;48.514;14.394;2023-07-02T00:36:36;93173.05;;;17.76;66.04
64211;BME280;50528;48.514;14.394;2023-07-02T00:37:10;93174.30;;;17.77;65.98
64211;BME280;50528;48.514;14.394;2023-07-02T00:37:43;93176.25;;;17.78;65.90
64211;BME280;50528;48.514;14.394;2023-07-02T00:38:16;93173.36;;;17.80;65.70
64211;BME280;50528;48.514;14.394;2023-07-02T00:38:50;93174.09;;;17.81;65.73
64211;BME280;50528;48.514;14.394;2023-07-02T00:39:23;93175.42;;;17.83;65.76
64211;BME280;50528;48.514;14.394;2023-07-02T00:39:57;93175.61;;;17.84;65.65
64211;BME280;50528;48.514;14.394;2023-07-02T00:40:30;93176.32;;;17.85;65.66
64211;BME280;50528;48.514;14.394;2023-07-02T00:41:04;93176.83;;;17.85;65.65
64211;BME280;50528;48.514;14.394;2023-07-02T00:41:38;93179.03;;;17.86;65.58
64211;BME280;50528;48.514;14.394;2023-07-02T00:42:11;93178.08;;;17.86;65.39
64211;BME280;50528;48.514;14.394;2023-07-02T00:42:45;93177.95;;;17.87;65.39
64211;BME280;50528;48.514;14.394;2023-07-02T00:43:22;93176.99;;;17.87;65.32
64211;BME280;50528;48.514;14.394;2023-07-02T00:44:19;93181.06;;;17.88;65.25
64211;BME280;50528;48.514;14.394;2023-07-02T00:45:17;93180.38;;;17.88;65.19
64211;BME280;50528;48.514;14.394;2023-07-02T00:45:51;93185.06;;;17.88;65.06
64211;BME280;50528;48.514;14.394;2023-07-02T00:46:26;93184.29;;;17.89;65.00
64211;BME280;50528;48.514;14.394;2023-07-02T00:46:59;93180.77;;;17.90;64.89
64211;BME280;50528;48.514;14.394;2023-07-02T00:47:34;93181.75;;;17.92;64.93
64211;BME280;50528;48.514;14.394;2023-07-02T00:48:08;93181.89;;;17.93;64.97
64211;BME280;50528;48.514;14.394;2023-07-02T00:48:45;93180.56;;;17.95;65.00
64211;BME280;50528;48.514;14.394;2023-07-02T00:49:19;93178.44;;;17.95;64.89
64211;BME280;50528;48.514;14.394;2023-07-02T00:49:53;93179.07;;;17.95;64.83
64211;BME280;50528;48.514;14.394;2023-07-02T00:50:27;93181.35;;;17.95;64.68
64211;BME280;50528;48.514;14.394;2023-07-02T00:51:00;93184.65;;;17.97;64.66
64211;BME280;50528;48.514;14.394;2023-07-02T00:51:34;93182.35;;;17.95;64.61
64211;BME280;50528;48.514;14.394;2023-07-02T00:52:08;93184.20;;;17.96;64.61
64211;BME280;50528;48.514;14.394;2023-07-02T00:52:41;93185.04;;;17.96;64.69
64211;BME280;50528;48.514;14.394;2023-07-02T00:53:14;93185.91;;;17.97;64.60
64211;BME280;50528;48.514;14.394;2023-07-02T00:53:50;93188.44;;;17.98;64.84
64211;BME280;50528;48.514;14.394;2023-07-02T00:54:24;93187.67;;;17.99;64.77
64211;BME280;50528;48.514;14.394;2023-07-02T00:54:57;93187.55;;;18.02;64.96
64211;BME280;50528;48.514;14.394;2023-07-02T00:55:30;93183.87;;;18.02;64.92
64211;BME280;50528;48.514;14.394;2023-07-02T00:56:04;93184.57;;;18.03;64.88
64211;BME280;50528;48.514;14.394;2023-07-02T00:56:37;93186.41;;;18.04;64.70
64211;BME280;50528;48.514;14.394;2023-07-02T00:57:11;93186.94;;;18.05;64.63
64211;BME280;50528;48.514;14.394;2023-07-02T00:57:44;93185.22;;;18.05;64.74
64211;BME280;50528;48.514;14.394;2023-07-02T00:58:19;93185.10;;;18.06;64.69
64211;BME280;50528;48.514;14.394;2023-07-02T00:58:54;93186.04;;;18.07;64.60
64211;BME280;50528;48.514;14.394;2023-07-02T00:59:32;93185.94;;;18.08;64.68
64211;BME280;50528;48.514;14.394;2023-07-02T01:00:11;93186.04;;;18.06;64.65
64211;BME280;50528;48.514;14.394;2023-07-02T01:00:45;93188.48;;;18.07;64.65
64211;BME280;50528;48.514;14.394;2023-07-02T01:01:20;93187.38;;;18.06;64.59
64211;BME280;50528;48.514;14.394;2023-07-02T01:01:55;93188.76;;;18.06;64.67
64211;BME280;50528;48.514;14.394;2023-07-02T01:02:30;93190.77;;;18.07;64.79
64211;BME280;50528;48.514;14.394;2023-07-02T01:03:03;93189.61;;;18.06;64.64
64211;BME280;50528;48.514;14.394;2023-07-02T01:03:37;93186.63;;;18.06;64.79
64211;BME280;50528;48.514;14.394;2023-07-02T01:04:10;93188.10;;;18.07;64.91
64211;BME280;50528;48.514;14.394;2023-07-02T01:04:47;93185.64;;;18.08;64.79
64211;BME280;50528;48.514;14.394;2023-07-02T01:05:23;93187.23;;;18.08;64.82
64211;BME280;50528;48.514;14.394;2023-07-02T01:05:56;93184.47;;;18.06;64.94
64211;BME280;50528;48.514;14.394;2023-07-02T01:06:32;93184.91;;;18.05;64.91
64211;BME280;50528;48.514;14.394;2023-07-02T01:07:06;93183.09;;;18.05;64.87
64211;BME280;50528;48.514;14.394;2023-07-02T01:07:46;93184.04;;;18.03;64.89
64211;BME280;50528;48.514;14.394;2023-07-02T01:08:20;93184.80;;;18.03;64.98
64211;BME280;50528;48.514;14.394;2023-07-02T01:08:59;93188.08;;;18.03;64.87
64211;BME280;50528;48.514;14.394;2023-07-02T01:09:34;93184.92;;;18.03;64.94
64211;BME280;50528;48.514;14.394;2023-07-02T01:10:08;93185.97;;;18.02;64.97
64211;BME280;50528;48.514;14.394;2023-07-02T01:10:41;93183.51;;;18.03;65.07
64211;BME280;50528;48.514;14.394;2023-07-02T01:11:15;93184.45;;;18.04;64.89
64211;BME280;50528;48.514;14.394;2023-07-02T01:11:51;93183.05;;;18.05;64.96
64211;BME280;50528;48.514;14.394;2023-07-02T01:12:28;93185.00;;;18.06;65.01
64211;BME280;50528;48.514;14.394;2023-07-02T01:13:14;93188.52;;;18.06;64.89
64211;BME280;50528;48.514;14.394;2023-07-02T01:13:50;93185.90;;;18.06;64.75
64211;BME280;50528;48.514;14.394;2023-07-02T01:14:29;93185.40;;;18.05;64.57
64211;BME280;50528;48.514;14.394;2023-07-02T01:15:05;93185.73;;;18.04;64.62
64211;BME280;50528;48.514;14.394;2023-07-02T01:15:39;93184.52;;;18.02;64.68
64211;BME280;50528;48.514;14.394;2023-07-02T01:16:12;93189.18;;;18.00;64.70
64211;BME280;50528;48.514;14.394;2023-07-02T01:16:47;93187.80;;;18.02;64.76
64211;BME280;50528;48.514;14.394;2023-07-02T01:17:22;93186.95;;;18.02;64.66
64211;BME280;50528;48.514;14.394;2023-07-02T01:17:56;93192.31;;;18.04;64.67
64211;BME280;50528;48.514;14.394;2023-07-02T01:18:30;93194.09;;;18.02;64.79
64211;BME280;50528;48.514;14.394;2023-07-02T01:19:05;93196.23;;;18.02;64.91
64211;BME280;50528;48.514;14.394;2023-07-02T01:19:55;93184.51;;;17.95;64.80
64211;BME280;50528;48.514;14.394;2023-07-02T01:20:33;93194.80;;;17.99;65.01
64211;BME280;50528;48.514;14.394;2023-07-02T01:21:07;93196.78;;;18.01;65.09
64211;BME280;50528;48.514;14.394;2023-07-02T01:21:41;93191.95;;;18.08;65.00
64211;BME280;50528;48.514;14.394;2023-07-02T01:22:14;93190.36;;;18.08;64.71
64211;BME280;50528;48.514;14.394;2023-07-02T01:22:48;93198.35;;;18.04;65.14
64211;BME280;50528;48.514;14.394;2023-07-02T01:23:24;93194.75;;;18.03;65.23
64211;BME280;50528;48.514;14.394;2023-07-02T01:23:59;93190.58;;;17.98;65.07
64211;BME280;50528;48.514;14.394;2023-07-02T01:24:38;93195.36;;;17.96;65.33
64211;BME280;50528;48.514;14.394;2023-07-02T01:25:14;93192.61;;;17.91;65.51
64211;BME280;50528;48.514;14.394;2023-07-02T01:25:51;93196.77;;;17.88;65.63
64211;BME280;50528;48.514;14.394;2023-07-02T01:26:28;93196.54;;;17.88;65.95
64211;BME280;50528;48.514;14.394;2023-07-02T01:27:02;93197.84;;;17.83;65.94
64211;BME280;50528;48.514;14.394;2023-07-02T01:27:35;93195.59;;;17.84;66.29
64211;BME280;50528;48.514;14.394;2023-07-02T01:28:10;93191.42;;;17.83;66.37
64211;BME280;50528;48.514;14.394;2023-07-02T01:28:46;93191.81;;;17.81;66.42
64211;BME280;50528;48.514;14.394;2023-07-02T01:29:20;93196.14;;;17.81;66.81
64211;BME280;50528;48.514;14.394;2023-07-02T01:29:54;93191.56;;;17.81;66.97
64211;BME280;50528;48.514;14.394;2023-07-02T01:30:27;93191.20;;;17.79;67.07
64211;BME280;50528;48.514;14.394;2023-07-02T01:31:00;93192.38;;;17.81;67.04
64211;BME280;50528;48.514;14.394;2023-07-02T01:31:34;93193.52;;;17.82;67.23
64211;BME280;50528;48.514;14.394;2023-07-02T01:32:07;93195.02;;;17.82;67.21
64211;BME280;50528;48.514;14.394;2023-07-02T01:32:44;93192.94;;;17.84;67.13
64211;BME280;50528;48.514;14.394;2023-07-02T01:33:17;93191.80;;;17.83;67.27
64211;BME280;50528;48.514;14.394;2023-07-02T01:33:51;93193.74;;;17.83;67.19
64211;BME280;50528;48.514;14.394;2023-07-02T01:34:25;93195.89;;;17.90;66.81
64211;BME280;50528;48.514;14.394;2023-07-02T01:34:58;93190.75;;;17.86;66.84
64211;BME280;50528;48.514;14.394;2023-07-02T01:35:37;93188.41;;;17.78;67.16
64211;BME280;50528;48.514;14.394;2023-07-02T01:36:10;93189.75;;;17.78;67.31
64211;BME280;50528;48.514;14.394;2023-07-02T01:36:44;93189.85;;;17.74;67.39
64211;BME280;50528;48.514;14.394;2023-07-02T01:37:18;93186.52;;;17.75;67.54
64211;BME280;50528;48.514;14.394;2023-07-02T01:37:51;93193.94;;;17.76;67.75
64211;BME280;50528;48.514;14.394;2023-07-02T01:38:24;93192.51;;;17.74;67.74
64211;BME280;50528;48.514;14.394;2023-07-02T01:38:58;93190.63;;;17.74;67.88
64211;BME280;50528;48.514;14.394;2023-07-02T01:39:32;93191.51;;;17.72;67.97
64211;BME280;50528;48.514;14.394;2023-07-02T01:40:06;93189.42;;;17.72;67.80
64211;BME280;50528;48.514;14.394;2023-07-02T01:40:39;93191.50;;;17.73;67.84
64211;BME280;50528;48.514;14.394;2023-07-02T01:41:13;93191.16;;;17.73;67.91
64211;BME280;50528;48.514;14.394;2023-07-02T01:41:55;93187.95;;;17.75;67.90
64211;BME280;50528;48.514;14.394;2023-07-02T01:42:28;93187.01;;;17.75;67.94
64211;BME280;50528;48.514;14.394;2023-07-02T01:43:02;93190.61;;;17.75;68.04
64211;BME280;50528;48.514;14.394;2023-07-02T01:43:35;93192.14;;;17.74;68.04
64211;BME280;50528;48.514;14.394;2023-07-02T01:44:09;93188.77;;;17.72;68.05
64211;BME280;50528;48.514;14.394;2023-07-02T01:44:44;93190.35;;;17.75;68.22
64211;BME280;50528;48.514;14.394;2023-07-02T01:45:18;93190.23;;;17.74;68.26
64211;BME280;50528;48.514;14.394;2023-07-02T01:45:51;93189.14;;;17.73;68.25
64211;BME280;50528;48.514;14.394;2023-07-02T01:46:25;93190.39;;;17.75;68.53
64211;BME280;50528;48.514;14.394;2023-07-02T01:46:58;93191.65;;;17.76;68.58
64211;BME280;50528;48.514;14.394;2023-07-02T01:47:34;93192.97;;;17.74;68.38
64211;BME280;50528;48.514;14.394;2023-07-02T01:48:11;93195.94;;;17.74;68.14
64211;BME280;50528;48.514;14.394;2023-07-02T01:48:44;93198.95;;;17.73;67.93
64211;BME280;50528;48.514;14.394;2023-07-02T01:50:43;93195.06;;;17.68;68.42
64211;BME280;50528;48.514;14.394;2023-07-02T01:51:17;93199.03;;;17.61;68.19
64211;BME280;50528;48.514;14.394;2023-07-02T01:51:51;93194.71;;;17.57;68.16
64211;BME280;50528;48.514;14.394;2023-07-02T01:52:25;93192.55;;;17.55;68.45
64211;BME280;50528;48.514;14.394;2023-07-02T01:52:59;93195.62;;;17.54;68.63
64211;BME280;50528;48.514;14.394;2023-07-02T01:53:33;93196.25;;;17.54;68.61
64211;BME280;50528;48.514;14.394;2023-07-02T01:54:08;93193.58;;;17.52;68.55
64211;BME280;50528;48.514;14.394;2023-07-02T01:54:41;93192.39;;;17.53;68.91
64211;BME280;50528;48.514;14.394;2023-07-02T01:55:15;93194.98;;;17.53;69.10
64211;BME280;50528;48.514;14.394;2023-07-02T01:55:53;93191.42;;;17.53;69.15
64211;BME280;50528;48.514;14.394;2023-07-02T01:56:27;93194.23;;;17.55;69.37
64211;BME280;50528;48.514;14.394;2023-07-02T01:57:01;93192.25;;;17.58;69.52
64211;BME280;50528;48.514;14.394;2023-07-02T01:57:35;93195.85;;;17.59;69.45
64211;BME280;50528;48.514;14.394;2023-07-02T01:58:08;93197.27;;;17.61;69.46
64211;BME280;50528;48.514;14.394;2023-07-02T01:58:42;93190.37;;;17.61;69.35
64211;BME280;50528;48.514;14.394;2023-07-02T01:59:17;93190.86;;;17.62;69.36
64211;BME280;50528;48.514;14.394;2023-07-02T01:59:51;93194.17;;;17.63;69.28
64211;BME280;50528;48.514;14.394;2023-07-02T02:00:26;93196.50;;;17.64;69.32
64211;BME280;50528;48.514;14.394;2023-07-02T02:01:00;93194.99;;;17.64;69.32
64211;BME280;50528;48.514;14.394;2023-07-02T02:01:34;93183.90;;;17.58;69.27
64211;BME280;50528;48.514;14.394;2023-07-02T02:02:09;93193.76;;;17.65;69.35
64211;BME280;50528;48.514;14.394;2023-07-02T02:02:44;93189.23;;;17.63;69.58
64211;BME280;50528;48.514;14.394;2023-07-02T02:03:18;93194.42;;;17.70;69.50
64211;BME280;50528;48.514;14.394;2023-07-02T02:03:52;93195.92;;;17.75;69.25
64211;BME280;50528;48.514;14.394;2023-07-02T02:04:26;93200.70;;;17.72;69.24
64211;BME280;50528;48.514;14.394;2023-07-02T02:05:00;93182.77;;;17.62;69.29
64211;BME280;50528;48.514;14.394;2023-07-02T02:05:34;93190.02;;;17.65;69.40
64211;BME280;50528;48.514;14.394;2023-07-02T02:06:10;93197.36;;;17.69;69.34
64211;BME280;50528;48.514;14.394;2023-07-02T02:06:44;93194.81;;;17.65;69.52
64211;BME280;50528;48.514;14.394;2023-07-02T02:07:18;93201.40;;;17.66;69.67
64211;BME280;50528;48.514;14.394;2023-07-02T02:07:54;93200.04;;;17.65;69.48
64211;BME280;50528;48.514;14.394;2023-07-02T02:08:32;93192.36;;;17.58;69.44
64211;BME280;50528;48.514;14.394;2023-07-02T02:09:06;93198.97;;;17.57;69.71
64211;BME280;50528;48.514;14.394;2023-07-02T02:09:40;93203.84;;;17.56;70.20
64211;BME280;50528;48.514;14.394;2023-07-02T02:10:14;93198.98;;;17.53;70.20
64211;BME280;50528;48.514;14.394;2023-07-02T02:10:48;93195.14;;;17.53;70.16
64211;BME280;50528;48.514;14.394;2023-07-02T02:11:22;93197.45;;;17.54;70.39
64211;BME280;50528;48.514;14.394;2023-07-02T02:11:56;93197.19;;;17.52;70.35
64211;BME280;50528;48.514;14.394;2023-07-02T02:12:30;93194.78;;;17.49;70.56
64211;BME280;50528;48.514;14.394;2023-07-02T02:13:03;93198.23;;;17.48;70.77
64211;BME280;50528;48.514;14.394;2023-07-02T02:13:40;93196.47;;;17.45;70.71
64211;BME280;50528;48.514;14.394;2023-07-02T02:14:13;93200.20;;;17.46;70.93
64211;BME280;50528;48.514;14.394;2023-07-02T02:14:47;93200.81;;;17.50;70.95
64211;BME280;50528;48.514;14.394;2023-07-02T02:15:21;93197.83;;;17.48;70.94
64211;BME280;50528;48.514;14.394;2023-07-02T02:15:54;93197.56;;;17.44;71.11
64211;BME280;50528;48.514;14.394;2023-07-02T02:16:29;93194.15;;;17.39;71.20
64211;BME280;50528;48.514;14.394;2023-07-02T02:17:03;93196.81;;;17.40;71.63
64211;BME280;50528;48.514;14.394;2023-07-02T02:17:38;93194.77;;;17.40;71.60
64211;BME280;50528;48.514;14.394;2023-07-02T02:18:11;93200.11;;;17.36;71.76
64211;BME280;50528;48.514;14.394;2023-07-02T02:18:47;93200.85;;;17.31;71.86
64211;BME280;50528;48.514;14.394;2023-07-02T02:19:20;93199.52;;;17.33;71.92
64211;BME280;50528;48.514;14.394;2023-07-02T02:19:54;93199.98;;;17.36;72.24
64211;BME280;50528;48.514;14.394;2023-07-02T02:20:28;93182.83;;;17.27;72.20
64211;BME280;50528;48.514;14.394;2023-07-02T02:21:04;93197.09;;;17.35;72.18
64211;BME280;50528;48.514;14.394;2023-07-02T02:21:38;93198.92;;;17.32;72.70
64211;BME280;50528;48.514;14.394;2023-07-02T02:22:13;93194.70;;;17.31;73.12
64211;BME280;50528;48.514;14.394;2023-07-02T02:22:57;93201.05;;;17.27;73.00
64211;BME280;50528;48.514;14.394;2023-07-02T02:23:31;93204.89;;;17.22;73.38
64211;BME280;50528;48.514;14.394;2023-07-02T02:24:06;93205.56;;;17.21;73.45
64211;BME280;50528;48.514;14.394;2023-07-02T02:24:55;93202.71;;;17.15;73.79
64211;BME280;50528;48.514;14.394;2023-07-02T02:25:29;93202.04;;;17.15;73.91
64211;BME280;50528;48.514;14.394;2023-07-02T02:26:09;93206.00;;;17.16;73.77
64211;BME280;50528;48.514;14.394;2023-07-02T02:26:43;93201.70;;;17.09;74.16
64211;BME280;50528;48.514;14.394;2023-07-02T02:27:17;93206.23;;;17.08;74.15
64211;BME280;50528;48.514;14.394;2023-07-02T02:27:51;93206.23;;;17.08;74.54
64211;BME280;50528;48.514;14.394;2023-07-02T02:28:24;93209.08;;;17.09;74.88
64211;BME280;50528;48.514;14.394;2023-07-02T02:28:58;93206.09;;;17.10;75.06
64211;BME280;50528;48.514;14.394;2023-07-02T02:29:32;93209.02;;;17.08;75.10
64211;BME280;50528;48.514;14.394;2023-07-02T02:30:07;93214.13;;;17.11;75.18
64211;BME280;50528;48.514;14.394;2023-07-02T02:30:40;93213.90;;;17.05;75.09
64211;BME280;50528;48.514;14.394;2023-07-02T02:31:15;93218.38;;;17.04;75.39
64211;BME280;50528;48.514;14.394;2023-07-02T02:31:49;93212.04;;;17.03;75.41
64211;BME280;50528;48.514;14.394;2023-07-02T02:32:23;93217.29;;;17.08;75.69
64211;BME280;50528;48.514;14.394;2023-07-02T02:32:57;93220.20;;;17.04;75.87
64211;BME280;50528;48.514;14.394;2023-07-02T02:33:32;93219.71;;;17.02;75.84
64211;BME280;50528;48.514;14.394;2023-07-02T02:34:06;93220.66;;;17.03;76.01
64211;BME280;50528;48.514;14.394;2023-07-02T02:34:40;93219.40;;;17.02;76.50
64211;BME280;50528;48.514;14.394;2023-07-02T02:35:14;93223.16;;;16.95;76.51
64211;BME280;50528;48.514;14.394;2023-07-02T02:35:50;93226.63;;;16.92;76.83
64211;BME280;50528;48.514;14.394;2023-07-02T02:36:24;93218.94;;;16.92;76.55
64211;BME280;50528;48.514;14.394;2023-07-02T02:36:58;93222.71;;;16.87;76.96
64211;BME280;50528;48.514;14.394;2023-07-02T02:37:33;93223.70;;;16.90;76.86
64211;BME280;50528;48.514;14.394;2023-07-02T02:38:08;93224.15;;;16.85;76.89
64211;BME280;50528;48.514;14.394;2023-07-02T02:38:42;93220.89;;;16.81;76.88
64211;BME280;50528;48.514;14.394;2023-07-02T02:39:24;93227.48;;;16.79;77.08
64211;BME280;50528;48.514;14.394;2023-07-02T02:39:58;93227.96;;;16.80;77.27
64211;BME280;50528;48.514;14.394;2023-07-02T02:40:32;93224.69;;;16.82;77.59
64211;BME280;50528;48.514;14.394;2023-07-02T02:41:05;93225.20;;;16.83;77.81
64211;BME280;50528;48.514;14.394;2023-07-02T02:41:45;93226.42;;;16.87;77.55
64211;BME280;50528;48.514;14.394;2023-07-02T02:42:19;93227.23;;;16.87;77.57
64211;BME280;50528;48.514;14.394;2023-07-02T02:42:52;93224.58;;;16.87;77.99
64211;BME280;50528;48.514;14.394;2023-07-02T02:43:26;93227.61;;;16.86;77.53
64211;BME280;50528;48.514;14.394;2023-07-02T02:44:00;93227.67;;;16.82;77.36
64211;BME280;50528;48.514;14.394;2023-07-02T02:44:33;93227.30;;;16.86;77.80
64211;BME280;50528;48.514;14.394;2023-07-02T02:45:08;93226.51;;;16.81;77.96
64211;BME280;50528;48.514;14.394;2023-07-02T02:45:41;93224.22;;;16.79;78.49
64211;BME280;50528;48.514;14.394;2023-07-02T02:46:20;93225.35;;;16.84;78.30
64211;BME280;50528;48.514;14.394;2023-07-02T02:46:55;93226.50;;;16.79;78.23
64211;BME280;50528;48.514;14.394;2023-07-02T02:47:29;93225.56;;;16.88;78.13
64211;BME280;50528;48.514;14.394;2023-07-02T02:48:03;93225.79;;;16.83;78.35
64211;BME280;50528;48.514;14.394;2023-07-02T02:48:36;93224.76;;;16.81;78.67
64211;BME280;50528;48.514;14.394;2023-07-02T02:49:10;93228.02;;;16.83;78.52
64211;BME280;50528;48.514;14.394;2023-07-02T02:49:44;93225.75;;;16.83;78.34
64211;BME280;50528;48.514;14.394;2023-07-02T02:50:18;93230.38;;;16.79;78.74
64211;BME280;50528;48.514;14.394;2023-07-02T02:50:52;93222.63;;;16.79;78.69
64211;BME280;50528;48.514;14.394;2023-07-02T02:51:26;93218.66;;;16.74;78.71
64211;BME280;50528;48.514;14.394;2023-07-02T02:51:59;93222.15;;;16.79;78.70
64211;BME280;50528;48.514;14.394;2023-07-02T02:52:33;93221.36;;;16.76;78.67
64211;BME280;50528;48.514;14.394;2023-07-02T02:53:10;93223.89;;;16.82;79.04
64211;BME280;50528;48.514;14.394;2023-07-02T02:53:43;93220.38;;;16.80;79.16
64211;BME280;50528;48.514;14.394;2023-07-02T02:54:17;93216.83;;;16.77;78.97
64211;BME280;50528;48.514;14.394;2023-07-02T02:54:50;93218.67;;;16.80;78.94
64211;BME280;50528;48.514;14.394;2023-07-02T02:55:26;93220.45;;;16.76;78.90
64211;BME280;50528;48.514;14.394;2023-07-02T02:55:59;93222.34;;;16.75;79.09
64211;BME280;50528;48.514;14.394;2023-07-02T02:56:33;93216.77;;;16.74;79.18
64211;BME280;50528;48.514;14.394;2023-07-02T02:57:07;93218.40;;;16.75;79.20
64211;BME280;50528;48.514;14.394;2023-07-02T02:57:40;93221.29;;;16.72;79.68
64211;BME280;50528;48.514;14.394;2023-07-02T02:58:14;93220.19;;;16.73;79.39
64211;BME280;50528;48.514;14.394;2023-07-02T02:58:48;93221.07;;;16.72;79.51
64211;BME280;50528;48.514;14.394;2023-07-02T02:59:21;93222.77;;;16.73;79.45
64211;BME280;50528;48.514;14.394;2023-07-02T02:59:55;93223.94;;;16.70;79.47
64211;BME280;50528;48.514;14.394;2023-07-02T03:00:29;93223.00;;;16.73;79.72
64211;BME280;50528;48.514;14.394;2023-07-02T03:01:02;93222.45;;;16.73;79.70
64211;BME280;50528;48.514;14.394;2023-07-02T03:01:43;93224.34;;;16.69;79.82
64211;BME280;50528;48.514;14.394;2023-07-02T03:02:17;93222.73;;;16.65;79.60
64211;BME280;50528;48.514;14.394;2023-07-02T03:02:51;93223.30;;;16.66;79.80
64211;BME280;50528;48.514;14.394;2023-07-02T03:03:25;93222.55;;;16.66;79.92
64211;BME280;50528;48.514;14.394;2023-07-02T03:03:58;93221.59;;;16.68;80.11
64211;BME280;50528;48.514;14.394;2023-07-02T03:04:34;93224.70;;;16.69;80.11
64211;BME280;50528;48.514;14.394;2023-07-02T03:05:08;93226.34;;;16.69;80.19
64211;BME280;50528;48.514;14.394;2023-07-02T03:05:42;93225.07;;;16.72;79.98